createdAt,value
2022-12-12T00:02:44.398Z,95.57
2022-12-12T00:07:48.793Z,86.93
2022-12-12T00:12:51.700Z,89.20
2022-12-12T00:17:54.452Z,86.50
2022-12-12T00:22:58.596Z,92.57
2022-12-12T00:28:02.563Z,85.40
2022-12-12T00:33:05.292Z,95.32
2022-12-12T00:38:09.536Z,87.88
2022-12-12T00:43:12.648Z,100.10
2022-12-12T00:48:15.380Z,92.97
2022-12-12T00:53:19.712Z,100.53
2022-12-12T00:58:22.479Z,97.80
2022-12-12T01:03:25.278Z,91.53
2022-12-12T01:08:29.724Z,90.28
2022-12-12T01:13:32.536Z,92.85
2022-12-12T01:18:35.561Z,94.75
2022-12-12T01:23:39.691Z,81.05
2022-12-12T01:28:43.706Z,91.32
2022-12-12T01:33:46.984Z,79.63
2022-12-12T01:38:54.338Z,86.57
2022-12-12T01:43:58.099Z,88.38
2022-12-12T01:49:04.937Z,88.18
2022-12-12T01:59:16.628Z,98.88
2022-12-12T02:04:20.056Z,104.13
2022-12-12T02:09:26.334Z,93.68
2022-12-12T02:14:32.574Z,78.97
2022-12-12T02:20:30.016Z,128.75
2022-12-12T02:26:10.325Z,86.90
2022-12-12T02:31:21.088Z,92.53
2022-12-12T02:36:33.564Z,91.47
2022-12-12T02:41:41.893Z,80.55
2022-12-12T02:46:52.448Z,84.82
2022-12-12T02:51:56.894Z,97.10
2022-12-12T02:57:01.259Z,87.70
2022-12-12T03:02:45.658Z,86.07
2022-12-12T03:07:58.303Z,87.13
2022-12-12T03:13:12.341Z,83.60
2022-12-12T03:18:25.966Z,82.90
2022-12-12T03:23:33.710Z,77.35
2022-12-12T03:28:40.639Z,80.55
2022-12-12T03:33:47.613Z,69.15
2022-12-12T03:38:57.287Z,71.25
2022-12-12T03:44:06.740Z,71.32
2022-12-12T03:49:16.837Z,61.20
2022-12-12T03:54:26.546Z,70.75
2022-12-12T03:59:33.662Z,61.35
2022-12-12T04:04:44.960Z,59.65
2022-12-12T04:10:05.712Z,56.22
2022-12-12T04:15:46.982Z,55.08
2022-12-12T04:21:21.767Z,67.65
2022-12-12T04:26:41.921Z,71.60
2022-12-12T04:31:51.479Z,65.32
2022-12-12T04:36:56.010Z,56.75
2022-12-12T04:42:02.045Z,46.38
2022-12-12T04:47:08.355Z,52.90
2022-12-12T04:52:15.261Z,46.67
2022-12-12T05:02:31.821Z,42.65
2022-12-12T05:07:40.456Z,43.85
2022-12-12T05:12:45.597Z,44.65
2022-12-12T05:17:50.959Z,41.38
2022-12-12T05:22:55.084Z,44.25
2022-12-12T05:27:58.226Z,43.20
2022-12-12T05:33:01.178Z,51.10
2022-12-12T05:38:05.341Z,41.58
2022-12-12T05:43:08.109Z,49.85
2022-12-12T05:48:10.929Z,40.13
2022-12-12T05:53:15.316Z,45.35
2022-12-12T05:58:18.214Z,43.75
2022-12-12T06:03:21.590Z,44.35
2022-12-12T06:08:25.847Z,50.03
2022-12-12T06:13:28.795Z,47.05
2022-12-12T06:18:31.826Z,42.67
2022-12-12T06:23:38.266Z,42.78
2022-12-12T06:28:41.301Z,47.95
2022-12-12T06:33:44.316Z,50.28
2022-12-12T06:38:48.541Z,44.45
2022-12-12T06:43:51.611Z,56.55
2022-12-12T06:48:56.409Z,53.72
2022-12-12T06:54:00.820Z,47.90
2022-12-12T06:59:03.681Z,52.17
2022-12-12T07:04:07.126Z,48.00
2022-12-12T07:09:11.997Z,54.13
2022-12-12T07:14:14.812Z,45.30
2022-12-12T07:19:17.898Z,42.95
2022-12-12T07:24:23.815Z,47.40
2022-12-12T07:29:27.328Z,60.50
2022-12-12T07:34:30.892Z,53.25
2022-12-12T07:39:37.162Z,44.50
2022-12-12T07:44:40.238Z,50.63
2022-12-12T07:49:43.095Z,41.40
2022-12-12T07:54:48.422Z,52.35
2022-12-12T07:59:54.115Z,48.75
2022-12-12T08:04:58.001Z,44.92
2022-12-12T08:10:03.405Z,50.97
2022-12-12T08:15:10.506Z,39.13
2022-12-12T08:20:15.834Z,51.42
2022-12-12T08:25:20.924Z,49.33
2022-12-12T08:30:23.742Z,38.45
2022-12-12T08:35:26.594Z,45.38
2022-12-12T08:40:31.394Z,47.17
2022-12-12T08:45:35.021Z,47.92
2022-12-12T08:50:41.889Z,53.67
2022-12-12T08:55:46.042Z,61.67
2022-12-12T09:00:48.760Z,40.50
2022-12-12T09:05:55.080Z,42.35
2022-12-12T09:10:59.526Z,41.10
2022-12-12T09:16:02.360Z,47.00
2022-12-12T09:21:06.516Z,43.10
2022-12-12T09:26:11.933Z,43.60
2022-12-12T09:31:14.937Z,39.08
2022-12-12T09:36:18.248Z,52.97
2022-12-12T09:41:27.983Z,43.05
2022-12-12T09:46:39.681Z,42.03
2022-12-12T09:51:45.654Z,46.53
2022-12-12T09:57:20.925Z,43.25
2022-12-12T10:02:38.363Z,35.97
2022-12-12T10:07:48.168Z,31.15
2022-12-12T10:12:53.987Z,36.47
2022-12-12T10:17:59.024Z,38.20
2022-12-12T10:23:07.111Z,38.85
2022-12-12T10:28:14.898Z,37.97
2022-12-12T10:33:26.712Z,48.97
2022-12-12T10:38:42.489Z,34.60
2022-12-12T10:43:54.557Z,33.50
2022-12-12T10:48:58.026Z,33.47
2022-12-12T10:54:00.931Z,36.70
2022-12-12T10:59:05.200Z,35.70
2022-12-12T11:04:07.955Z,41.38
2022-12-12T11:09:19.333Z,34.20
2022-12-12T11:14:29.082Z,37.38
2022-12-12T11:19:40.029Z,34.72
2022-12-12T11:24:46.373Z,37.25
2022-12-12T11:29:53.643Z,38.27
2022-12-12T11:34:59.985Z,36.67
2022-12-12T11:40:03.596Z,37.17
2022-12-12T11:45:25.036Z,34.20
2022-12-12T11:50:30.937Z,32.23
2022-12-12T11:55:40.613Z,31.85
2022-12-12T12:00:52.039Z,30.40
2022-12-12T12:06:09.156Z,30.38
2022-12-12T12:11:20.902Z,31.70
2022-12-12T12:16:35.883Z,33.72
2022-12-12T12:21:50.601Z,56.35
2022-12-12T12:27:03.648Z,66.50
2022-12-12T12:32:18.181Z,37.15
2022-12-12T12:37:33.603Z,32.88
2022-12-12T12:42:51.601Z,31.15
2022-12-12T12:48:07.238Z,26.27
2022-12-12T12:53:26.030Z,33.80
2022-12-12T12:58:34.521Z,40.03
2022-12-12T13:03:47.033Z,29.60
2022-12-12T13:08:57.447Z,30.52
2022-12-12T13:14:10.745Z,29.38
2022-12-12T13:19:23.448Z,33.72
2022-12-12T13:24:33.492Z,38.40
2022-12-12T13:29:44.656Z,38.65
2022-12-12T13:34:54.017Z,25.50
2022-12-12T13:40:01.496Z,29.35
2022-12-12T13:45:37.541Z,27.38
2022-12-12T13:50:41.820Z,32.88
2022-12-12T13:55:44.728Z,38.92
2022-12-12T14:00:49.124Z,35.95
2022-12-12T14:05:55.030Z,29.88
2022-12-12T14:11:02.095Z,34.17
2022-12-12T14:16:08.704Z,34.38
2022-12-12T14:21:15.312Z,35.38
2022-12-12T14:26:50.227Z,38.60
2022-12-12T14:32:04.946Z,42.50
2022-12-12T14:37:36.122Z,33.90
2022-12-12T14:43:15.455Z,43.17
2022-12-12T14:48:22.693Z,39.53
2022-12-12T14:53:31.894Z,40.25
2022-12-12T14:58:37.836Z,52.50
2022-12-12T15:03:45.648Z,50.47
2022-12-12T15:08:50.756Z,67.03
2022-12-12T15:13:55.909Z,39.28
2022-12-12T15:19:00.770Z,51.97
2022-12-12T15:24:05.733Z,50.65
2022-12-12T15:29:09.117Z,52.83
2022-12-12T15:34:40.937Z,45.25
2022-12-12T15:39:45.217Z,51.28
2022-12-12T15:44:53.069Z,69.88
2022-12-12T15:49:55.998Z,99.88
2022-12-12T15:55:05.035Z,214.23
2022-12-12T16:00:10.172Z,129.07
2022-12-12T16:05:25.807Z,95.30
2022-12-12T16:10:30.017Z,77.28
2022-12-12T16:15:36.263Z,63.45
2022-12-12T16:20:46.157Z,50.47
2022-12-12T16:25:50.858Z,60.67
2022-12-12T16:30:56.457Z,53.40
2022-12-12T16:36:01.499Z,63.72
2022-12-12T16:41:08.516Z,78.47
2022-12-12T16:46:18.018Z,66.63
2022-12-12T16:51:27.536Z,81.85
2022-12-12T16:56:32.326Z,70.38
2022-12-12T17:01:38.771Z,79.03
2022-12-12T17:06:41.889Z,71.95
2022-12-12T17:11:45.977Z,84.80
2022-12-12T17:16:48.890Z,94.32
2022-12-12T17:21:51.905Z,95.05
2022-12-12T17:26:56.968Z,100.40
2022-12-12T17:32:00.630Z,95.03
2022-12-12T17:37:03.621Z,81.85
2022-12-12T17:42:07.850Z,83.32
2022-12-12T17:47:10.686Z,90.82
2022-12-12T17:52:13.528Z,76.80
2022-12-12T17:57:21.727Z,77.97
2022-12-12T18:02:28.007Z,73.03
2022-12-12T18:07:31.222Z,77.03
2022-12-12T18:12:35.281Z,80.35
2022-12-12T18:17:38.262Z,78.25
2022-12-12T18:22:41.082Z,78.53
2022-12-12T18:27:45.303Z,86.30
2022-12-12T18:32:48.167Z,104.70
2022-12-12T18:37:51.070Z,90.80
2022-12-12T18:42:55.240Z,121.88
2022-12-12T18:47:58.595Z,107.68
2022-12-12T18:53:01.413Z,96.18
2022-12-12T18:58:05.645Z,79.78
2022-12-12T19:03:08.941Z,98.53
2022-12-12T19:08:15.394Z,102.30
2022-12-12T19:13:19.593Z,92.75
2022-12-12T19:18:22.715Z,92.03
2022-12-12T19:23:25.570Z,87.75
2022-12-12T19:28:30.908Z,111.80
2022-12-12T19:33:33.729Z,98.43
2022-12-12T19:38:36.660Z,88.18
2022-12-12T19:43:41.656Z,122.22
2022-12-12T19:48:45.624Z,100.97
2022-12-12T19:53:50.126Z,99.90
2022-12-12T19:58:54.555Z,96.40
2022-12-12T20:03:59.293Z,86.07
2022-12-12T20:09:02.289Z,94.53
2022-12-12T20:14:07.529Z,79.38
2022-12-12T20:19:11.485Z,84.45
2022-12-12T20:24:15.477Z,88.82
2022-12-12T20:29:19.763Z,81.25
2022-12-12T20:34:24.519Z,90.00
2022-12-12T20:39:28.350Z,80.82
2022-12-12T20:44:32.596Z,94.40
2022-12-12T20:49:35.500Z,94.88
2022-12-12T20:54:38.304Z,102.95
2022-12-12T20:59:42.483Z,93.45
2022-12-12T21:04:45.339Z,101.20
2022-12-12T21:09:48.160Z,94.45
2022-12-12T21:14:52.305Z,92.05
2022-12-12T21:19:55.023Z,90.82
2022-12-12T21:24:57.807Z,93.53
2022-12-12T21:30:02.045Z,96.38
2022-12-12T21:35:05.674Z,87.88
2022-12-12T21:40:10.121Z,101.05
2022-12-12T21:45:16.174Z,96.00
2022-12-12T21:50:19.416Z,87.88
2022-12-12T21:55:22.145Z,95.80
2022-12-12T22:00:28.362Z,110.80
2022-12-12T22:05:31.077Z,109.63
2022-12-12T22:10:37.444Z,102.78
2022-12-12T22:15:41.642Z,105.40
2022-12-12T22:20:44.846Z,90.25
2022-12-12T22:25:47.640Z,110.28
2022-12-12T22:30:51.781Z,97.97
2022-12-12T22:35:54.685Z,106.45
2022-12-12T22:40:57.709Z,104.82
2022-12-12T22:46:06.407Z,99.65
2022-12-12T22:51:14.412Z,107.72
2022-12-12T22:56:17.997Z,101.03
2022-12-12T23:01:24.268Z,92.95
2022-12-12T23:06:29.895Z,101.75
2022-12-12T23:11:34.277Z,107.03
2022-12-12T23:16:38.558Z,87.00
2022-12-12T23:21:41.312Z,88.57
2022-12-12T23:26:44.805Z,84.22
2022-12-12T23:31:49.072Z,90.20
2022-12-12T23:36:52.560Z,98.22
2022-12-12T23:41:55.809Z,97.32
2022-12-12T23:46:59.988Z,95.38
2022-12-12T23:52:03.200Z,92.30
2022-12-12T23:57:05.933Z,91.78
